Latest  Newer  Older  Last 2 hours slideshow  Last 24 hours slideshow  Refresh every 5 minutes 
Current image  Latest image  Rain/snow radar  Cloud coverage sat images 

All time is UTC (add 2 hours to UTC in wintertime, 3 hours to UTC in DST for Latvia local time)

2021/02/24 23:20 EVRA 242320Z 21006KT 8000 NSC 04/04 Q1020 R18/290195 NOSIG
2021/02/24 23:20 EVLA 242320Z AUTO 23010KT 9999 FEW026/// OVC085/// 04/04 Q1022
2021/02/24 23:20 EVVA 242320Z AUTO 24015KT 6000 NSC 05/05 Q1019
2021/02/24 23:20 EYKA 242320Z AUTO 23005KT 9000 NCD 05/03 Q1025
2021/02/24 23:20 EYPA 242320Z AUTO 23006KT 200V270 9999 FEW029/// BKN056/// BKN082/// 05/04 Q1024
2021/02/24 23:20 EYSA 242320Z 24013KT CAVOK 06/04 Q1023 R14L/19//95 R14R/19//95 BLU NOSIG
2021/02/24 23:20 EYVI 242320Z 20008KT 0550 R19/0900V1700D NSC 02/02 Q1025 R19/2///95 NOSIG
2021/02/24 16:20 EEKA 241620Z 22010KT 180V260 CAVOK 05/03 Q1015
2021/02/24 23:20 EEKE 242320Z AUTO VRB05KT 7000NDV NCD 05/04 Q1017

2021/02/24 23:20 EETN 242320Z 26011KT 5000 -RA BR OVC004 04/04 Q1013 R08/290195
2021/02/24 23:20 EETU 242320Z AUTO 25013KT 8000 OVC009/// 05/04 Q1015
   RIGA AIRPORT     EVRA               56 55N  023 58E   10   X     T          6 LV
   LIEPAJA INTL     EVLA        26406  56 31N  021 06E    4   X                8 LV
   VENTPILS         EVVA               57 21N  021 33E    6   X                8 LV
   KAUNAS           EYKA               54 54N  023 55E   77   X     T          6 LT
   PALANGA INTL     EYPA               55 55N  021 03E   10   X                6 LT
   SIAULIAI INTL    EYSA               55 54N  023 24E  135   X     T          6 LT
   VILNIUS INTL     EYVI        26730  54 38N  025 17E  197   X     T          6 LT
   KARDLA           EEKA        26116  58 59N  022 50E    4   X                8 EE
   KURESSAARE       EEKE               58 14N  022 31E    4   X                8 EE
   PARNU            EEPU               58 25N  024 28E   14   X                8 EE
   TALLINN          EETN        26038  59 24N  024 49E   40   X     T          8 EE
   TARTU            EETU               58 19N  026 41E   67   X                8 EE